ADDS METAR Data INFO
IDs: Format: Raw Decoded Include TAF

Data at: 0142 UTC 17 Oct 2017

KFTG 170055Z 27003KT 10SM FEW140 SCT220 18/M11 A3024
KFTG 162352Z 35004KT 10SM SCT220 22/M12 A3023
KFTG 162255Z 32005KT 10SM SCT220 24/M13 A3022
KFTG 162152Z 32010KT 10SM FEW150 SCT220 26/M15 A3023
KFTG 162052Z 30014G20KT 10SM FEW150 SCT220 26/M14 A3022
KFTG 161952Z 28012G17KT 10SM FEW150 SCT220 25/M14 A3024
KFTG 161850Z 26015G23KT 10SM FEW150 BKN220 25/M13 A3027
KFTG 161752Z 25012G20KT 10SM BKN200 24/M12 A3029
KFTG 161650Z 20010G14KT 10SM BKN200 22/M08 A3031
KFTG 161550Z 22008KT 10SM BKN200 19/M07 A3033
KFTG 161452Z 21009G15KT 10SM BKN200 15/M07 A3033
KFTG 161352Z 19015G19KT 10SM BKN200 10/M08 A3032
KFTG 161259Z AUTO 19012G18KT 10SM CLR 07/M05 A3032 RMK AO2
KFTG 161253Z AUTO 20016KT 10SM CLR 08/M07 A3032 RMK AO2
KFTG 161230Z AUTO 20015G18KT 10SM CLR 10/M07 A3032 RMK AO2
KFTG 161212Z AUTO 21011G18KT 10SM CLR 10/M07 A3032 RMK AO2
KFTG 161154Z AUTO 19012G17KT 10SM CLR 05/M03 A3033 RMK AO2
KFTG 161133Z AUTO 15007G17KT 131V191 10SM CLR 05/M03 A3033 RMK AO2
KFTG 161112Z AUTO 18010G17KT 10SM CLR 05/M04 A3033 RMK AO2
KFTG 161052Z AUTO 19013G17KT 10SM CLR 05/M03 A3033 RMK AO2
KFTG 161024Z AUTO 19012G16KT 10SM CLR 03/M03 A3033 RMK AO2
KFTG 161012Z AUTO 19009G16KT 10SM CLR 05/M03 A3034 RMK AO2
KFTG 160954Z AUTO 19010G16KT 10SM CLR 05/M03 A3034 RMK AO2
KFTG 160930Z AUTO 20015KT 10SM CLR 07/M04 A3034 RMK AO2
KFTG 160912Z AUTO 21009G16KT 10SM CLR 06/M03 A3035 RMK AO2
KFTG 160853Z AUTO 20009G16KT 10SM CLR 03/M02 A3036 RMK AO2
KFTG 160835Z AUTO 18007KT 10SM CLR 03/M02 A3037 RMK AO2
KFTG 160811Z AUTO 18008G14KT 10SM CLR 03/M02 A3039 RMK AO2
KFTG 160752Z AUTO 18009KT 10SM CLR 03/M02 A3039 RMK AO2
KFTG 160734Z AUTO 18006KT 10SM CLR 04/M02 A3039 RMK AO2
KFTG 160712Z AUTO 22008KT 10SM CLR 07/M02 A3039 RMK AO2
KFTG 160654Z AUTO 21009G14KT 10SM CLR 07/M02 A3039 RMK AO2
KFTG 160630Z AUTO 22005KT 10SM CLR 07/M02 A3040 RMK AO2
KFTG 160612Z AUTO 23005KT 10SM CLR 06/M01 A3041 RMK AO2
KFTG 160554Z AUTO 24006KT 10SM CLR 06/M01 A3042 RMK AO2
KFTG 160530Z AUTO 23009KT 10SM CLR 07/M01 A3041 RMK AO2
KFTG 160512Z AUTO 23009KT 10SM CLR 06/M02 A3041 RMK AO2
KFTG 160454Z AUTO 23008KT 10SM CLR 07/M02 A3042 RMK AO2
KFTG 160430Z AUTO 22008KT 10SM CLR 06/M03 A3042 RMK AO2
KFTG 160412Z AUTO 21004KT 10SM CLR 06/M03 A3042 RMK AO2
KFTG 160353Z AUTO 22007KT 10SM CLR 07/M05 A3041 RMK AO2
KFTG 160329Z AUTO 24007KT 10SM CLR 08/M05 A3041 RMK AO2
KFTG 160311Z AUTO 20005KT 10SM CLR 07/M04 A3042 RMK AO2
KFTG 160247Z 00000KT 10SM SKC 08/M06 A3040
KFTG 160147Z 10006KT 10SM SKC 12/M07 A3041
KFTG 160050Z 09007KT 10SM SKC 12/M07 A3039
KFTG 152347Z 08006KT 10SM SKC 16/M06 A3039
KFTG 152252Z 09009G15KT 10SM SKC 18/M09 A3039
KFTG 152152Z 07007KT 10SM SKC 18/M09 A3040
KFTG 152052Z 08008KT 10SM SKC 18/M09 A3040
KFTG 151955Z 09007KT 10SM SKC 18/M08 A3042
KFTG 151850Z 09007KT 10SM SKC 16/M07 A3045
KFTG 151750Z 06004KT 10SM SKC 14/M04 A3046
KFTG 151657Z 00000KT 10SM SKC 13/M06 A3046
KFTG 151608Z 36006G14KT 10SM SKC 09/M06 A3046
KFTG 151550Z 32005KT 10SM SKC 09/M04 A3045
KFTG 151450Z 24003KT 10SM SKC 07/M07 A3043
KFTG 151350Z 20006KT 10SM SKC 01/M06 A3040